createdAt,value
2023-01-22T00:02:21.000Z,0.60
2023-01-22T00:04:51.842Z,0.68
2023-01-22T00:07:22.700Z,0.40
2023-01-22T00:09:55.898Z,0.30
2023-01-22T00:12:28.893Z,0.77
2023-01-22T00:14:59.497Z,0.60
2023-01-22T00:17:30.029Z,0.40
2023-01-22T00:20:00.776Z,0.40
2023-01-22T00:22:31.392Z,0.43
2023-01-22T00:25:05.625Z,1.10
2023-01-22T00:27:36.269Z,0.90
2023-01-22T00:30:07.821Z,0.60
2023-01-22T00:32:38.498Z,0.70
2023-01-22T00:35:09.578Z,0.90
2023-01-22T00:37:40.192Z,1.08
2023-01-22T00:40:15.182Z,0.70
2023-01-22T00:42:46.132Z,1.55
2023-01-22T00:45:18.129Z,1.42
2023-01-22T00:47:48.692Z,1.40
2023-01-22T00:50:19.920Z,1.23
2023-01-22T00:52:50.682Z,1.13
2023-01-22T00:55:23.979Z,1.33
2023-01-22T00:57:54.595Z,0.90
2023-01-22T01:00:25.170Z,0.80
2023-01-22T01:03:08.256Z,0.57
2023-01-22T01:05:38.902Z,0.68
2023-01-22T01:08:09.595Z,0.70
2023-01-22T01:10:42.971Z,0.63
2023-01-22T01:13:14.315Z,0.70
2023-01-22T01:15:44.918Z,0.55
2023-01-22T01:18:15.600Z,0.77
2023-01-22T01:20:46.518Z,0.77
2023-01-22T01:23:17.081Z,1.23
2023-01-22T01:25:50.340Z,0.80
2023-01-22T01:28:20.949Z,0.80
2023-01-22T01:30:52.466Z,0.93
2023-01-22T01:33:24.634Z,1.00
2023-01-22T01:36:02.550Z,1.88
2023-01-22T01:38:37.023Z,1.88
2023-01-22T01:41:10.920Z,1.58
2023-01-22T01:43:41.556Z,1.35
2023-01-22T01:46:23.123Z,1.13
2023-01-22T01:48:56.476Z,1.30
2023-01-22T01:51:33.106Z,1.30
2023-01-22T01:54:05.673Z,1.20
2023-01-22T01:56:43.051Z,1.20
2023-01-22T01:59:16.605Z,1.23
2023-01-22T02:01:51.643Z,1.30
2023-01-22T02:04:22.887Z,2.10
2023-01-22T02:06:53.479Z,1.88
2023-01-22T02:09:24.374Z,1.80
2023-01-22T02:11:58.122Z,2.85
2023-01-22T02:14:31.916Z,1.95
2023-01-22T02:17:04.607Z,2.45
2023-01-22T02:19:35.266Z,3.03
2023-01-22T02:22:15.119Z,2.65
2023-01-22T02:24:45.680Z,2.42
2023-01-22T02:27:16.703Z,2.15
2023-01-22T02:29:48.034Z,2.00
2023-01-22T02:32:18.888Z,2.05
2023-01-22T02:34:49.451Z,1.70
2023-01-22T02:37:22.777Z,1.83
2023-01-22T02:39:53.299Z,1.13
2023-01-22T02:42:24.224Z,1.10
2023-01-22T02:44:54.883Z,1.27
2023-01-22T02:47:25.826Z,1.05
2023-01-22T02:49:57.401Z,1.00
2023-01-22T02:52:30.556Z,0.95
2023-01-22T02:55:01.135Z,0.90
2023-01-22T02:57:34.116Z,0.90
2023-01-22T03:00:05.461Z,1.00
2023-01-22T03:02:36.262Z,1.02
2023-01-22T03:05:07.600Z,0.70
2023-01-22T03:07:45.837Z,1.13
2023-01-22T03:10:18.878Z,1.85
2023-01-22T03:13:03.296Z,0.82
2023-01-22T03:15:46.444Z,0.75
2023-01-22T03:18:29.937Z,0.70
2023-01-22T03:21:19.019Z,0.63
2023-01-22T03:23:54.154Z,0.50
2023-01-22T03:26:29.111Z,0.60
2023-01-22T03:28:59.719Z,0.73
2023-01-22T03:31:30.571Z,0.73
2023-01-22T03:34:01.538Z,0.95
2023-01-22T03:36:32.628Z,0.80
2023-01-22T03:39:10.397Z,0.60
2023-01-22T03:41:41.096Z,0.50
2023-01-22T03:44:14.379Z,1.10
2023-01-22T03:46:46.339Z,1.00
2023-01-22T03:49:17.905Z,0.80
2023-01-22T03:51:48.846Z,0.90
2023-01-22T03:54:22.160Z,0.80
2023-01-22T03:56:52.800Z,1.02
2023-01-22T03:59:29.833Z,0.90
2023-01-22T04:02:00.483Z,1.40
2023-01-22T04:04:32.536Z,1.00
2023-01-22T04:07:03.124Z,1.50
2023-01-22T04:09:38.571Z,2.28
2023-01-22T04:14:39.695Z,1.77
2023-01-22T04:17:11.522Z,1.15
2023-01-22T04:20:04.739Z,1.40
2023-01-22T04:22:54.635Z,1.65
2023-01-22T04:25:27.939Z,1.48
2023-01-22T04:27:58.529Z,2.00
2023-01-22T04:30:29.597Z,2.00
2023-01-22T04:33:10.908Z,2.00
2023-01-22T04:35:57.764Z,1.80
2023-01-22T04:38:28.531Z,1.38
2023-01-22T04:41:01.693Z,1.40
2023-01-22T04:43:32.343Z,1.55
2023-01-22T04:46:03.151Z,1.10
2023-01-22T04:48:35.837Z,0.90
2023-01-22T04:51:06.845Z,1.27
2023-01-22T04:53:37.621Z,0.82
2023-01-22T04:56:13.110Z,0.95
2023-01-22T04:58:43.903Z,0.90
2023-01-22T05:01:14.672Z,1.30
2023-01-22T05:03:45.661Z,1.13
2023-01-22T05:06:17.236Z,1.35
2023-01-22T05:08:47.881Z,1.30
2023-01-22T05:11:22.053Z,1.02
2023-01-22T05:14:00.325Z,1.25
2023-01-22T05:16:31.007Z,1.20
2023-01-22T05:19:01.635Z,1.10
2023-01-22T05:21:33.778Z,1.58
2023-01-22T05:24:04.558Z,1.30
2023-01-22T05:26:38.071Z,1.27
2023-01-22T05:29:18.428Z,1.10
2023-01-22T05:32:08.897Z,1.27
2023-01-22T05:34:45.950Z,1.52
2023-01-22T05:37:17.209Z,3.42
2023-01-22T05:39:47.740Z,3.03
2023-01-22T05:42:22.439Z,3.38
2023-01-22T05:44:53.972Z,2.90
2023-01-22T05:47:30.217Z,2.90
2023-01-22T05:50:14.631Z,3.75
2023-01-22T05:52:45.536Z,4.20
2023-01-22T05:55:17.167Z,2.90
2023-01-22T05:57:52.294Z,2.10
2023-01-22T06:00:23.516Z,1.85
2023-01-22T06:03:00.631Z,2.10
2023-01-22T06:05:34.083Z,1.95
2023-01-22T06:08:09.559Z,1.63
2023-01-22T06:10:47.975Z,1.35
2023-01-22T06:13:21.168Z,1.40
2023-01-22T06:15:56.938Z,1.30
2023-01-22T06:18:53.095Z,1.70
2023-01-22T06:21:23.728Z,1.70
2023-01-22T06:23:54.785Z,2.00
2023-01-22T06:26:25.521Z,1.90
2023-01-22T06:28:58.902Z,2.47
2023-01-22T06:31:29.863Z,4.15
2023-01-22T06:34:01.020Z,3.88
2023-01-22T06:36:32.064Z,3.00
2023-01-22T06:39:02.926Z,2.65
2023-01-22T06:41:44.913Z,1.90
2023-01-22T06:44:22.050Z,2.77
2023-01-22T06:46:53.877Z,2.70
2023-01-22T06:49:28.390Z,1.40
2023-01-22T06:51:58.903Z,1.15
2023-01-22T06:54:29.678Z,2.40
2023-01-22T06:57:00.164Z,3.60
2023-01-22T06:59:34.420Z,3.05
2023-01-22T07:02:06.195Z,3.67
2023-01-22T07:04:36.863Z,2.60
2023-01-22T07:07:07.393Z,3.20
2023-01-22T07:09:38.218Z,1.90
2023-01-22T07:12:09.249Z,1.80
2023-01-22T07:14:42.601Z,1.02
2023-01-22T07:17:13.351Z,1.08
2023-01-22T07:19:44.010Z,1.20
2023-01-22T07:22:14.633Z,1.33
2023-01-22T07:24:45.308Z,2.05
2023-01-22T07:27:15.847Z,1.58
2023-01-22T07:29:50.291Z,4.05
2023-01-22T07:32:20.835Z,1.20
2023-01-22T07:34:51.439Z,2.63
2023-01-22T07:37:21.922Z,1.45
2023-01-22T07:39:52.719Z,1.30
2023-01-22T07:42:23.307Z,1.63
2023-01-22T07:44:57.461Z,3.97
2023-01-22T07:47:28.088Z,3.20
2023-01-22T07:49:58.849Z,2.17
2023-01-22T07:52:29.330Z,2.72
2023-01-22T07:55:00.335Z,1.95
2023-01-22T07:57:31.003Z,2.13
2023-01-22T08:00:04.244Z,2.30
2023-01-22T08:02:43.315Z,1.88
2023-01-22T08:05:16.977Z,2.20
2023-01-22T08:07:47.579Z,3.03
2023-01-22T08:10:19.241Z,4.05
2023-01-22T08:12:50.041Z,3.65
2023-01-22T08:15:23.411Z,5.45
2023-01-22T08:17:54.277Z,3.78
2023-01-22T08:20:24.897Z,4.25
2023-01-22T08:23:00.543Z,3.78
2023-01-22T08:25:32.110Z,5.07
2023-01-22T08:28:05.772Z,3.60
2023-01-22T08:30:46.140Z,4.60
2023-01-22T08:33:19.216Z,3.53
2023-01-22T08:35:50.407Z,3.05
2023-01-22T08:38:21.489Z,3.10
2023-01-22T08:40:53.223Z,3.80
2023-01-22T08:43:25.411Z,3.92
2023-01-22T08:45:58.929Z,4.35
2023-01-22T08:48:30.405Z,4.88
2023-01-22T08:51:03.337Z,3.90
2023-01-22T08:53:33.996Z,3.70
2023-01-22T08:56:05.143Z,3.13
2023-01-22T08:58:35.826Z,2.30
2023-01-22T09:01:09.196Z,2.30
2023-01-22T09:03:39.788Z,1.85
2023-01-22T09:06:10.499Z,1.50
2023-01-22T09:08:41.674Z,1.58
2023-01-22T09:11:12.530Z,2.00
2023-01-22T09:13:43.115Z,1.80
2023-01-22T09:16:16.432Z,2.80
2023-01-22T09:18:47.082Z,3.88
2023-01-22T09:21:17.718Z,4.93
2023-01-22T09:23:48.307Z,4.15
2023-01-22T09:26:19.067Z,1.95
2023-01-22T09:28:49.931Z,1.83
2023-01-22T09:31:23.226Z,2.47
2023-01-22T09:33:55.839Z,2.03
2023-01-22T09:36:28.478Z,1.52
2023-01-22T09:38:59.441Z,1.80
2023-01-22T09:41:35.494Z,1.15
2023-01-22T09:44:12.914Z,3.38
2023-01-22T09:46:51.060Z,1.15
2023-01-22T09:49:24.359Z,1.00
2023-01-22T09:51:58.194Z,1.50
2023-01-22T09:54:30.961Z,0.90
2023-01-22T09:57:04.821Z,0.95
2023-01-22T09:59:39.903Z,1.40
2023-01-22T10:02:26.229Z,0.90
2023-01-22T10:05:10.153Z,1.73
2023-01-22T10:07:47.077Z,1.73
2023-01-22T10:10:23.185Z,1.17
2023-01-22T10:12:58.638Z,1.10
2023-01-22T10:15:29.669Z,0.90
2023-01-22T10:18:03.432Z,1.10
2023-01-22T10:20:36.089Z,1.42
2023-01-22T10:23:20.553Z,1.10
2023-01-22T10:25:53.521Z,3.28
2023-01-22T10:28:28.672Z,1.50
2023-01-22T10:31:00.817Z,0.82
2023-01-22T10:33:44.672Z,1.55
2023-01-22T10:36:17.936Z,1.80
2023-01-22T10:38:48.606Z,1.50
2023-01-22T10:41:21.282Z,1.42
2023-01-22T10:43:52.214Z,1.73
2023-01-22T10:46:27.435Z,2.42
2023-01-22T10:49:09.048Z,1.40
2023-01-22T10:51:43.116Z,1.95
2023-01-22T10:54:24.705Z,2.58
2023-01-22T10:57:06.977Z,3.47
2023-01-22T10:59:38.417Z,2.70
2023-01-22T11:02:19.874Z,2.85
2023-01-22T11:04:53.532Z,2.30
2023-01-22T11:07:27.256Z,1.90
2023-01-22T11:10:06.281Z,2.42
2023-01-22T11:12:41.673Z,2.10
2023-01-22T11:17:54.855Z,2.88
2023-01-22T11:20:32.025Z,4.10
2023-01-22T11:23:17.545Z,4.25
2023-01-22T11:25:53.807Z,9.55
2023-01-22T11:28:41.827Z,3.88
2023-01-22T11:31:26.586Z,3.33
2023-01-22T11:34:22.629Z,5.88
2023-01-22T11:37:02.560Z,5.55
2023-01-22T11:39:45.861Z,6.43
2023-01-22T11:42:34.965Z,13.52
2023-01-22T11:45:30.482Z,7.90
2023-01-22T11:48:20.265Z,6.77
2023-01-22T11:50:55.873Z,3.60
2023-01-22T11:56:21.694Z,3.80
2023-01-22T11:58:57.852Z,3.45
2023-01-22T12:01:38.175Z,4.57
2023-01-22T12:04:32.287Z,2.88
2023-01-22T12:07:36.472Z,1.95
2023-01-22T12:10:27.990Z,3.78
2023-01-22T12:13:06.747Z,1.40
2023-01-22T12:15:47.399Z,1.33
2023-01-22T12:18:43.787Z,1.60
2023-01-22T12:23:58.499Z,2.08
2023-01-22T12:26:35.834Z,1.30
2023-01-22T12:29:13.010Z,2.00
2023-01-22T12:31:51.159Z,1.50
2023-01-22T12:34:28.599Z,1.60
2023-01-22T12:36:59.437Z,1.45
2023-01-22T12:39:33.622Z,1.13
2023-01-22T12:42:18.877Z,2.30
2023-01-22T12:44:59.091Z,1.67
2023-01-22T12:47:38.108Z,2.40
2023-01-22T12:50:20.453Z,2.25
2023-01-22T12:53:02.223Z,1.63
2023-01-22T12:55:37.514Z,1.90
2023-01-22T12:58:24.432Z,1.48
2023-01-22T13:01:04.717Z,1.30
2023-01-22T13:03:36.356Z,1.50
2023-01-22T13:06:20.692Z,1.58
2023-01-22T13:08:51.705Z,2.10
2023-01-22T13:11:32.311Z,2.15
2023-01-22T13:14:15.693Z,1.50
2023-01-22T13:16:55.257Z,1.60
2023-01-22T13:19:27.953Z,2.03
2023-01-22T13:22:02.358Z,2.17
2023-01-22T13:24:33.001Z,1.63
2023-01-22T13:27:05.371Z,2.70
2023-01-22T13:29:40.524Z,1.48
2023-01-22T13:32:22.430Z,1.10
2023-01-22T13:34:52.906Z,1.67
2023-01-22T13:37:27.325Z,1.15
2023-01-22T13:39:57.873Z,1.75
2023-01-22T13:42:30.344Z,1.48
2023-01-22T13:45:04.279Z,1.65
2023-01-22T13:47:37.388Z,1.40
2023-01-22T13:50:09.130Z,2.05
2023-01-22T13:52:39.799Z,1.33
2023-01-22T13:55:18.036Z,1.83
2023-01-22T13:57:49.586Z,2.20
2023-01-22T14:00:34.718Z,1.77
2023-01-22T14:03:05.733Z,2.40
2023-01-22T14:05:38.712Z,1.52
2023-01-22T14:08:11.378Z,2.50
2023-01-22T14:10:43.843Z,3.03
2023-01-22T14:13:16.344Z,3.17
2023-01-22T14:15:59.610Z,2.67
2023-01-22T14:18:31.717Z,2.60
2023-01-22T14:21:03.339Z,2.10
2023-01-22T14:23:34.590Z,2.53
2023-01-22T14:26:07.937Z,2.15
2023-01-22T14:28:39.949Z,3.00
2023-01-22T14:31:13.436Z,2.00
2023-01-22T14:33:44.098Z,2.70
2023-01-22T14:36:15.061Z,1.70
2023-01-22T14:38:46.055Z,1.42
2023-01-22T14:41:16.744Z,2.13
2023-01-22T14:43:47.588Z,2.20
2023-01-22T14:46:20.859Z,1.83
2023-01-22T14:48:51.408Z,1.08
2023-01-22T14:51:22.365Z,2.38
2023-01-22T14:53:52.937Z,1.70
2023-01-22T14:56:23.538Z,1.40
2023-01-22T14:58:54.101Z,1.67
2023-01-22T15:01:27.400Z,1.40
2023-01-22T15:03:57.779Z,1.35
2023-01-22T15:06:28.806Z,1.13
2023-01-22T15:08:59.622Z,1.00
2023-01-22T15:11:30.242Z,1.20
2023-01-22T15:14:01.215Z,1.80
2023-01-22T15:16:34.676Z,1.80
2023-01-22T15:19:05.369Z,1.05
2023-01-22T15:21:36.015Z,1.42
2023-01-22T15:24:06.825Z,1.90
2023-01-22T15:26:38.354Z,1.60
2023-01-22T15:29:12.028Z,1.48
2023-01-22T15:31:45.179Z,1.60
2023-01-22T15:34:15.877Z,1.73
2023-01-22T15:36:46.463Z,2.40
2023-01-22T15:39:16.917Z,1.85
2023-01-22T15:41:48.038Z,5.43
2023-01-22T15:44:18.476Z,6.47
2023-01-22T15:46:51.756Z,7.53
2023-01-22T15:49:22.385Z,7.95
2023-01-22T15:51:54.617Z,9.45
2023-01-22T15:54:26.996Z,12.27
2023-01-22T15:56:57.648Z,11.57
2023-01-22T15:59:28.184Z,7.70
2023-01-22T16:02:01.435Z,11.13
2023-01-22T16:04:31.943Z,11.32
2023-01-22T16:07:02.762Z,10.50
2023-01-22T16:09:33.310Z,12.15
2023-01-22T16:12:03.913Z,23.15
2023-01-22T16:14:34.394Z,20.27
2023-01-22T16:17:07.688Z,17.17
2023-01-22T16:19:38.299Z,13.20
2023-01-22T16:22:08.974Z,14.80
2023-01-22T16:24:39.595Z,16.95
2023-01-22T16:27:10.372Z,23.83
2023-01-22T16:29:41.108Z,22.02
2023-01-22T16:32:14.297Z,37.25
2023-01-22T16:34:44.826Z,32.75
2023-01-22T16:37:15.363Z,28.92
2023-01-22T16:39:45.934Z,26.92
2023-01-22T16:42:16.684Z,28.95
2023-01-22T16:44:47.587Z,27.58
2023-01-22T16:47:20.997Z,29.13
2023-01-22T16:49:51.946Z,28.35
2023-01-22T16:52:23.279Z,26.70
2023-01-22T16:54:53.918Z,25.35
2023-01-22T16:57:24.563Z,22.23
2023-01-22T16:59:55.217Z,18.98
2023-01-22T17:02:28.519Z,17.63
2023-01-22T17:04:59.119Z,18.83
2023-01-22T17:07:34.352Z,23.45
2023-01-22T17:10:05.244Z,29.85
2023-01-22T17:12:35.874Z,29.88
2023-01-22T17:15:06.499Z,35.17
2023-01-22T17:17:40.513Z,30.42
2023-01-22T17:20:13.345Z,27.73
2023-01-22T17:22:44.433Z,26.45
2023-01-22T17:25:14.965Z,26.13
2023-01-22T17:27:45.840Z,26.13
2023-01-22T17:30:18.419Z,26.40
2023-01-22T17:32:52.803Z,26.42
2023-01-22T17:35:23.605Z,29.13
2023-01-22T17:37:54.438Z,26.65
2023-01-22T17:40:25.586Z,25.08
2023-01-22T17:42:56.754Z,25.13
2023-01-22T17:45:27.851Z,27.15
2023-01-22T17:48:01.280Z,28.00
2023-01-22T17:50:32.040Z,33.63
2023-01-22T17:53:02.989Z,30.95
2023-01-22T17:55:34.102Z,31.95
2023-01-22T17:58:05.075Z,30.33
2023-01-22T18:00:38.348Z,29.92
2023-01-22T18:03:12.341Z,31.88
2023-01-22T18:05:43.157Z,27.88
2023-01-22T18:08:14.542Z,28.38
2023-01-22T18:10:45.888Z,31.33
2023-01-22T18:13:16.988Z,30.98
2023-01-22T18:15:49.371Z,30.42
2023-01-22T18:18:23.070Z,29.75
2023-01-22T18:20:54.110Z,28.52
2023-01-22T18:23:25.156Z,27.90
2023-01-22T18:25:58.678Z,27.83
2023-01-22T18:28:30.225Z,34.55
2023-01-22T18:31:09.003Z,29.55
2023-01-22T18:33:44.698Z,34.42
2023-01-22T18:36:19.329Z,33.03
2023-01-22T18:38:53.617Z,28.60
2023-01-22T18:41:27.198Z,27.92
2023-01-22T18:44:01.068Z,26.42
2023-01-22T18:46:34.987Z,28.02
2023-01-22T18:49:09.996Z,25.23
2023-01-22T18:51:42.280Z,24.00
2023-01-22T18:54:13.762Z,21.85
2023-01-22T18:56:44.663Z,17.45
2023-01-22T18:59:15.960Z,19.35
2023-01-22T19:01:51.965Z,20.30
2023-01-22T19:04:25.640Z,20.45
2023-01-22T19:06:57.521Z,18.65
2023-01-22T19:09:32.009Z,20.27
2023-01-22T19:12:02.668Z,21.05
2023-01-22T19:14:33.616Z,23.20
2023-01-22T19:17:06.680Z,21.98
2023-01-22T19:19:40.647Z,24.15
2023-01-22T19:22:11.600Z,18.88
2023-01-22T19:24:44.076Z,19.55
2023-01-22T19:27:15.110Z,25.05
2023-01-22T19:29:48.125Z,23.80
2023-01-22T19:32:27.196Z,22.50
2023-01-22T19:35:01.179Z,23.08
2023-01-22T19:37:35.067Z,23.58
2023-01-22T19:40:07.603Z,24.05
2023-01-22T19:42:40.375Z,23.42
2023-01-22T19:45:12.155Z,24.10
2023-01-22T19:47:43.060Z,24.67
2023-01-22T19:50:16.975Z,26.02
2023-01-22T19:52:48.126Z,28.25
2023-01-22T19:55:20.402Z,30.00
2023-01-22T19:57:51.637Z,29.48
2023-01-22T20:00:23.178Z,27.63
2023-01-22T20:02:53.766Z,33.53
2023-01-22T20:05:27.233Z,31.27
2023-01-22T20:08:00.750Z,32.38
2023-01-22T20:10:33.232Z,29.92
2023-01-22T20:13:04.059Z,31.60
2023-01-22T20:15:39.760Z,32.38
2023-01-22T20:18:12.074Z,31.58
2023-01-22T20:20:45.650Z,32.97
2023-01-22T20:23:16.611Z,29.90
2023-01-22T20:25:47.504Z,32.30
2023-01-22T20:28:18.188Z,32.15
2023-01-22T20:30:59.077Z,32.60
2023-01-22T20:33:30.695Z,27.63
2023-01-22T20:36:05.899Z,31.20
2023-01-22T20:38:36.675Z,28.58
2023-01-22T20:41:09.636Z,18.55
2023-01-22T20:43:41.424Z,17.08
2023-01-22T20:46:15.360Z,16.17
2023-01-22T20:48:46.327Z,13.70
2023-01-22T20:51:22.309Z,15.57
2023-01-22T20:53:54.914Z,17.63
2023-01-22T20:56:28.999Z,16.98
2023-01-22T20:59:00.559Z,17.35
2023-01-22T21:01:32.567Z,19.95
2023-01-22T21:04:04.191Z,19.75
2023-01-22T21:06:39.633Z,18.85
2023-01-22T21:09:12.297Z,16.15
2023-01-22T21:11:45.279Z,16.15
2023-01-22T21:14:20.724Z,14.85
2023-01-22T21:16:51.364Z,18.50
2023-01-22T21:19:26.318Z,19.52
2023-01-22T21:22:00.841Z,18.55
2023-01-22T21:24:31.463Z,17.80
2023-01-22T21:27:02.196Z,16.90
2023-01-22T21:29:33.007Z,14.27
2023-01-22T21:32:04.018Z,13.77
2023-01-22T21:34:36.548Z,12.52
2023-01-22T21:37:10.229Z,12.20
2023-01-22T21:39:45.180Z,10.73
2023-01-22T21:42:28.630Z,11.05
2023-01-22T21:45:11.731Z,12.85
2023-01-22T21:47:42.480Z,12.88
2023-01-22T21:50:14.480Z,11.23
2023-01-22T21:52:49.070Z,15.02
2023-01-22T21:55:21.374Z,13.00
2023-01-22T21:57:52.406Z,13.52
2023-01-22T22:00:23.532Z,14.23
2023-01-22T22:02:54.533Z,14.05
2023-01-22T22:05:25.391Z,13.48
2023-01-22T22:07:59.653Z,11.93
2023-01-22T22:10:30.672Z,9.75
2023-01-22T22:13:02.817Z,10.18
2023-01-22T22:15:33.474Z,10.88
2023-01-22T22:18:04.089Z,9.55
2023-01-22T22:20:34.807Z,9.90
2023-01-22T22:23:08.135Z,13.05
2023-01-22T22:25:38.747Z,11.93
2023-01-22T22:28:09.632Z,10.75
2023-01-22T22:30:40.350Z,12.05
2023-01-22T22:33:11.005Z,11.13
2023-01-22T22:35:42.071Z,11.52
2023-01-22T22:38:15.743Z,12.23
2023-01-22T22:40:46.359Z,12.07
2023-01-22T22:43:16.979Z,12.00
2023-01-22T22:45:47.531Z,11.25
2023-01-22T22:48:19.654Z,11.30
2023-01-22T22:50:50.286Z,10.60
2023-01-22T22:53:23.639Z,11.52
2023-01-22T22:55:54.474Z,10.85
2023-01-22T22:58:25.452Z,11.02
2023-01-22T23:00:56.896Z,10.07
2023-01-22T23:03:28.333Z,9.98
2023-01-22T23:05:59.172Z,10.23
2023-01-22T23:08:32.612Z,10.63
2023-01-22T23:11:05.643Z,10.52
2023-01-22T23:13:37.015Z,11.27
2023-01-22T23:16:09.396Z,10.27
2023-01-22T23:18:40.462Z,10.20
2023-01-22T23:21:13.138Z,10.48
2023-01-22T23:23:46.900Z,10.27
2023-01-22T23:26:19.843Z,11.63
2023-01-22T23:28:52.319Z,11.90
2023-01-22T23:31:22.974Z,11.38
2023-01-22T23:33:54.337Z,13.18
2023-01-22T23:36:26.244Z,11.00
2023-01-22T23:39:00.030Z,10.85
2023-01-22T23:41:30.884Z,11.05
2023-01-22T23:44:01.568Z,11.18
2023-01-22T23:46:35.329Z,11.95
2023-01-22T23:49:07.278Z,12.52
2023-01-22T23:51:41.353Z,12.35
2023-01-22T23:54:14.836Z,11.73
2023-01-22T23:56:45.526Z,9.95
2023-01-22T23:59:16.126Z,10.10
